Time;durP1;ratioP1;P1;durP2;ratioP2;P2;SDS_P1;SDS_P2;PMS_P1;PMS_P2;Temp;Humidity;BMP_temperature;BMP_pressure;BME280_temperature;BME280_humidity;BME280_pressure;Samples;Min_cycle;Max_cycle;Signal;HPM_P1;HPM_P2
2022/12/13 00:01:49;;;;;;;1.77;1.67;;;-6.20;1.00;;;;;;5111063;28;20428;-70
2022/12/13 00:04:16;;;;;;;1.55;1.15;;;-6.20;1.00;;;;;;5110035;28;20430;-70
2022/12/13 00:06:44;;;;;;;1.50;1.40;;;-6.20;1.00;;;;;;5112784;28;20454;-70
2022/12/13 00:09:15;;;;;;;4.10;1.30;;;-6.20;1.00;;;;;;5103271;28;20488;-70
2022/12/13 00:11:44;;;;;;;1.02;1.02;;;-6.20;1.00;;;;;;5107621;28;20511;-71
2022/12/13 00:14:12;;;;;;;3.25;1.58;;;-6.30;1.00;;;;;;5111312;28;20438;-70
2022/12/13 00:16:40;;;;;;;1.60;1.50;;;-6.30;1.00;;;;;;5117586;28;20431;-70
2022/12/13 00:19:07;;;;;;;1.60;1.50;;;-6.30;1.00;;;;;;5113910;28;20430;-70
2022/12/13 00:21:34;;;;;;;1.58;1.45;;;-6.30;1.00;;;;;;5101303;28;20431;-70
2022/12/13 00:24:01;;;;;;;2.50;1.58;;;-6.30;1.00;;;;;;5107368;28;20427;-70
2022/12/13 00:26:30;;;;;;;1.60;1.17;;;-6.20;1.00;;;;;;5093141;28;20430;-69
2022/12/13 00:29:01;;;;;;;2.67;2.43;;;-6.20;1.00;;;;;;5115574;28;20481;-70
2022/12/13 00:31:33;;;;;;;3.63;1.50;;;-6.30;1.00;;;;;;5105360;28;20508;-71
2022/12/13 00:34:20;;;;;;;5.82;2.15;;;-6.30;1.00;;;;;;5096777;28;20419;-70
2022/12/13 00:36:47;;;;;;;4.00;0.85;;;-6.30;1.00;;;;;;5123027;28;20551;-69
2022/12/13 00:39:17;;;;;;;3.45;1.40;;;-6.30;1.00;;;;;;5097588;28;20426;-70
2022/12/13 00:41:46;;;;;;;1.30;1.20;;;-6.30;1.00;;;;;;5098010;28;20432;-71
2022/12/13 00:44:13;;;;;;;6.20;1.40;;;-6.30;1.00;;;;;;5107160;28;20428;-71
2022/12/13 00:46:42;;;;;;;1.23;1.23;;;-6.40;1.00;;;;;;5105562;28;20461;-70
2022/12/13 00:49:11;;;;;;;2.90;2.10;;;-6.40;1.00;;;;;;5096952;28;20428;-70
2022/12/13 00:51:39;;;;;;;2.65;1.25;;;-6.40;1.00;;;;;;5115376;28;20434;-70
2022/12/13 00:54:06;;;;;;;2.73;1.60;;;-6.40;1.00;;;;;;5109723;28;21014;-70
2022/12/13 00:56:33;;;;;;;3.70;0.90;;;-6.40;1.00;;;;;;5109736;28;20488;-70
2022/12/13 00:59:02;;;;;;;3.80;1.92;;;-6.50;1.00;;;;;;5112856;27;20446;-70
2022/12/13 01:01:32;;;;;;;0.73;0.73;;;-6.40;1.00;;;;;;5109367;27;20423;-70
2022/12/13 01:04:01;;;;;;;1.40;1.30;;;-6.40;1.00;;;;;;5107693;27;20928;-70
2022/12/13 01:06:44;;;;;;;2.70;0.98;;;-6.40;1.00;;;;;;5092129;28;20422;-69
2022/12/13 01:09:17;;;;;;;2.67;0.95;;;-6.40;1.00;;;;;;5100112;27;20428;-70
2022/12/13 01:11:45;;;;;;;3.70;1.65;;;-6.50;1.00;;;;;;5112253;27;20435;-69
2022/12/13 01:14:12;;;;;;;2.40;1.50;;;-6.50;1.00;;;;;;5102247;27;20782;-70
2022/12/13 01:16:39;;;;;;;1.50;1.40;;;-6.60;1.00;;;;;;5103810;28;20432;-69
2022/12/13 01:19:06;;;;;;;1.65;1.55;;;-6.60;1.00;;;;;;5121929;27;20425;-69
2022/12/13 01:21:32;;;;;;;1.55;1.45;;;-6.60;99.90;;;;;;5108774;27;20446;-70
2022/12/13 01:24:04;;;;;;;3.08;2.22;;;-6.70;99.90;;;;;;5103170;27;20425;-70
2022/12/13 01:26:33;;;;;;;1.33;1.02;;;-6.80;99.90;;;;;;5115127;27;20447;-70
2022/12/13 01:29:04;;;;;;;4.80;2.15;;;-6.70;99.90;;;;;;5110215;27;20452;-70
2022/12/13 01:31:31;;;;;;;3.40;1.63;;;-6.70;99.90;;;;;;5122099;27;20430;-70
2022/12/13 01:33:58;;;;;;;0.73;0.73;;;-6.70;99.90;;;;;;5114753;27;20420;-70
2022/12/13 01:36:24;;;;;;;1.73;1.55;;;-6.70;99.90;;;;;;5106719;27;20421;-70
2022/12/13 01:38:57;;;;;;;4.88;1.80;;;-6.70;99.90;;;;;;5120746;27;20422;-74
2022/12/13 01:41:27;;;;;;;0.45;0.45;;;-6.70;99.90;;;;;;5105774;27;20431;-70
2022/12/13 01:44:06;;;;;;;1.70;0.90;;;-6.60;99.90;;;;;;5121723;27;20422;-69
2022/12/13 01:46:37;;;;;;;3.90;1.25;;;-6.60;99.90;;;;;;5110597;27;20874;-69
2022/12/13 01:49:16;;;;;;;2.13;1.55;;;-6.60;99.90;;;;;;5108839;27;20462;-69
2022/12/13 01:51:58;;;;;;;1.80;0.90;;;-6.60;99.90;;;;;;5112407;27;20434;-69
2022/12/13 01:54:31;;;;;;;3.35;1.35;;;-6.50;99.90;;;;;;5098334;28;20454;-69
2022/12/13 01:57:04;;;;;;;0.73;0.73;;;-6.70;99.90;;;;;;5108307;27;20421;-69
2022/12/13 01:59:32;;;;;;;3.72;1.70;;;-6.70;99.90;;;;;;5105881;27;20422;-69
2022/12/13 02:01:59;;;;;;;2.17;1.50;;;-6.70;99.90;;;;;;5098491;27;20426;-69
2022/12/13 02:04:37;;;;;;;1.40;1.30;;;-6.80;99.90;;;;;;5100752;27;20422;-69
2022/12/13 02:07:14;;;;;;;6.77;1.43;;;-6.70;99.90;;;;;;5085739;28;20463;-69
2022/12/13 02:09:52;;;;;;;1.70;1.35;;;-6.70;99.90;;;;;;5090626;27;20454;-69
2022/12/13 02:12:32;;;;;;;2.10;0.82;;;-6.70;99.90;;;;;;5083257;28;21058;-69
2022/12/13 02:15:01;;;;;;;3.00;1.50;;;-6.70;99.90;;;;;;5113513;27;20426;-69
2022/12/13 02:18:05;;;;;;;1.15;1.15;;;-6.80;99.90;;;;;;5117767;27;20498;-69
2022/12/13 02:20:35;;;;;;;6.05;0.88;;;-6.90;99.90;;;;;;5111463;27;20465;-69
2022/12/13 02:23:19;;;;;;;0.80;0.80;;;-6.90;99.90;;;;;;5100682;27;20431;-69
2022/12/13 02:26:05;;;;;;;1.33;1.23;;;-6.90;99.90;;;;;;5118172;27;20424;-69
2022/12/13 02:28:52;;;;;;;1.20;1.10;;;-6.90;99.90;;;;;;5108857;27;20418;-69
2022/12/13 02:31:38;;;;;;;1.42;1.33;;;-7.10;99.90;;;;;;5112525;27;20504;-69
2022/12/13 02:34:22;;;;;;;2.63;2.15;;;-7.10;99.90;;;;;;5092445;27;20896;-69
2022/12/13 02:37:00;;;;;;;1.00;0.80;;;-7.10;99.90;;;;;;5116569;27;20418;-70
2022/12/13 02:39:38;;;;;;;1.00;0.63;;;-7.20;99.90;;;;;;5111800;27;20424;-69
2022/12/13 02:42:11;;;;;;;2.83;1.50;;;-7.20;99.90;;;;;;5110652;27;20424;-69
2022/12/13 02:45:00;;;;;;;1.67;1.25;;;-7.20;99.90;;;;;;5111746;27;20430;-69
2022/12/13 02:47:29;;;;;;;3.20;1.27;;;-7.20;99.90;;;;;;5096476;27;20444;-69
2022/12/13 02:50:01;;;;;;;1.38;1.05;;;-7.10;99.90;;;;;;5107681;27;20434;-69
2022/12/13 02:52:30;;;;;;;1.05;1.05;;;-7.10;99.90;;;;;;5102238;27;20790;-70
2022/12/13 02:54:57;;;;;;;2.80;1.67;;;-7.00;99.90;;;;;;5090298;27;20425;-70
2022/12/13 02:57:35;;;;;;;3.95;1.15;;;-7.00;99.90;;;;;;5100057;27;21088;-70
2022/12/13 03:00:12;;;;;;;2.13;0.98;;;-7.00;99.90;;;;;;5107660;27;20482;-70
2022/12/13 03:02:50;;;;;;;0.80;0.55;;;-6.90;99.90;;;;;;5098427;27;20438;-69
2022/12/13 03:08:18;;;;;;;0.95;0.95;;;-6.90;99.90;;;;;;5108085;27;20789;-69
2022/12/13 03:11:06;;;;;;;1.17;1.08;;;-7.00;99.90;;;;;;5094850;27;21207;-69
2022/12/13 03:13:36;;;;;;;1.42;1.15;;;-7.10;99.90;;;;;;5091180;27;20422;-69
2022/12/13 03:16:12;;;;;;;1.88;1.67;;;-7.10;99.90;;;;;;5101935;27;20484;-69
2022/12/13 03:18:40;;;;;;;3.85;1.08;;;-7.20;99.90;;;;;;5103950;27;20421;-69
2022/12/13 03:21:08;;;;;;;2.00;1.05;;;-7.30;99.90;;;;;;5103712;27;20861;-69
2022/12/13 03:23:40;;;;;;;0.52;0.52;;;-7.30;99.90;;;;;;5104768;27;20433;-69
2022/12/13 03:26:24;;;;;;;1.10;0.80;;;-7.40;99.90;;;;;;5105725;27;20485;-69
2022/12/13 03:28:51;;;;;;;2.10;1.40;;;-7.50;99.90;;;;;;5125948;27;20480;-69
2022/12/13 03:31:21;;;;;;;7.85;1.30;;;-7.50;99.90;;;;;;5123555;27;20792;-69
2022/12/13 03:33:47;;;;;;;2.30;1.30;;;-7.50;99.90;;;;;;5110841;27;20418;-69
2022/12/13 03:36:17;;;;;;;1.30;1.20;;;-7.60;99.90;;;;;;5089201;28;20429;-69
2022/12/13 03:38:46;;;;;;;0.90;0.80;;;-7.60;99.90;;;;;;5107760;28;20421;-69
2022/12/13 03:41:15;;;;;;;0.95;0.95;;;-7.60;99.90;;;;;;5108564;27;20959;-69
2022/12/13 03:43:43;;;;;;;3.72;2.45;;;-7.60;99.90;;;;;;5121513;27;20556;-69
2022/12/13 03:46:10;;;;;;;1.00;1.00;;;-7.60;99.90;;;;;;5103945;27;20900;-69
2022/12/13 03:48:37;;;;;;;1.08;0.98;;;-7.70;99.90;;;;;;5091283;28;20426;-69
2022/12/13 03:51:04;;;;;;;3.40;1.30;;;-7.60;99.90;;;;;;5110700;27;20460;-69
2022/12/13 03:53:31;;;;;;;0.80;0.80;;;-7.60;99.90;;;;;;5088805;28;20431;-69
2022/12/13 03:56:02;;;;;;;1.48;1.25;;;-7.60;99.90;;;;;;5110233;28;20423;-69
2022/12/13 03:58:30;;;;;;;1.35;1.10;;;-7.60;99.90;;;;;;5106677;28;20415;-69
2022/12/13 04:01:07;;;;;;;1.92;1.70;;;-7.60;99.90;;;;;;5104893;28;20437;-69
2022/12/13 04:03:35;;;;;;;1.65;0.85;;;-7.70;99.90;;;;;;5115253;28;20422;-69
2022/12/13 04:06:03;;;;;;;1.73;1.10;;;-7.80;99.90;;;;;;5097381;28;20437;-69
2022/12/13 04:08:29;;;;;;;4.13;1.70;;;-7.80;99.90;;;;;;5108007;28;20445;-69
2022/12/13 04:10:56;;;;;;;0.35;0.35;;;-7.90;99.90;;;;;;5116212;28;21137;-69
2022/12/13 04:13:32;;;;;;;1.70;1.42;;;-7.90;99.90;;;;;;5106482;28;20438;-69
2022/12/13 04:15:59;;;;;;;0.75;0.75;;;-7.90;99.90;;;;;;5100492;28;20446;-69
2022/12/13 04:18:27;;;;;;;1.10;1.10;;;-7.90;99.90;;;;;;5115908;28;20426;-69
2022/12/13 04:20:53;;;;;;;1.70;1.13;;;-7.80;99.90;;;;;;5091321;28;20428;-69
2022/12/13 04:23:23;;;;;;;3.08;1.63;;;-7.90;99.90;;;;;;5105941;28;20431;-69
2022/12/13 04:25:50;;;;;;;2.20;1.25;;;-7.90;99.90;;;;;;5107530;28;20432;-69
2022/12/13 04:28:17;;;;;;;4.22;1.80;;;-7.90;99.90;;;;;;5103262;28;20423;-69
2022/12/13 04:30:49;;;;;;;1.13;1.02;;;-8.00;99.90;;;;;;5101921;28;20506;-69
2022/12/13 04:33:23;;;;;;;1.25;1.15;;;-8.10;99.90;;;;;;5122415;27;20424;-69
2022/12/13 04:35:50;;;;;;;1.00;1.00;;;-8.20;99.90;;;;;;5116662;27;20452;-69
2022/12/13 04:38:19;;;;;;;1.37;1.27;;;-8.20;99.90;;;;;;5119739;27;20426;-69
2022/12/13 04:40:46;;;;;;;6.90;1.90;;;-8.10;99.90;;;;;;5116614;27;20504;-68
2022/12/13 04:43:13;;;;;;;1.42;0.95;;;-8.00;99.90;;;;;;5131656;27;20437;-69
2022/12/13 04:45:40;;;;;;;1.60;1.35;;;-8.00;99.90;;;;;;5093787;28;20425;-68
2022/12/13 04:48:09;;;;;;;3.85;1.58;;;-8.00;99.90;;;;;;5085930;27;20486;-68
2022/12/13 04:50:35;;;;;;;0.85;0.85;;;-8.10;99.90;;;;;;5115967;27;20416;-68
2022/12/13 04:53:04;;;;;;;1.70;0.80;;;-8.00;99.90;;;;;;5095954;27;20491;-69
2022/12/13 04:55:31;;;;;;;0.90;0.90;;;-8.00;99.90;;;;;;5111437;27;20426;-68
2022/12/13 04:57:58;;;;;;;1.98;1.70;;;-8.00;99.90;;;;;;5120991;27;20799;-68
2022/12/13 05:00:24;;;;;;;0.98;0.98;;;-8.10;99.90;;;;;;5130102;27;20419;-69
2022/12/13 05:02:51;;;;;;;2.03;1.38;;;-8.20;99.90;;;;;;5103872;27;20428;-69
2022/12/13 05:05:18;;;;;;;0.95;0.88;;;-8.20;99.90;;;;;;5115308;27;20787;-68
2022/12/13 05:07:45;;;;;;;5.22;1.88;;;-8.30;99.90;;;;;;5098021;27;20452;-68
2022/12/13 05:10:12;;;;;;;1.88;1.60;;;-8.40;99.90;;;;;;5101374;27;20422;-68
2022/12/13 05:12:59;;;;;;;1.27;1.23;;;-8.40;99.90;;;;;;5123396;27;20426;-68
2022/12/13 05:15:26;;;;;;;1.10;1.00;;;-8.40;99.90;;;;;;5092453;28;20471;-68
2022/12/13 05:17:53;;;;;;;8.60;1.20;;;-8.50;99.90;;;;;;5115730;27;20424;-68
2022/12/13 05:20:21;;;;;;;1.30;0.98;;;-8.50;99.90;;;;;;5094829;28;20622;-68
2022/12/13 05:22:48;;;;;;;4.00;1.40;;;-8.50;99.90;;;;;;5112153;28;20469;-68
2022/12/13 05:25:21;;;;;;;2.28;1.40;;;-8.50;99.90;;;;;;5112317;28;20429;-68
2022/12/13 05:27:51;;;;;;;2.10;1.40;;;-8.50;99.90;;;;;;5102920;28;20429;-68
2022/12/13 05:30:22;;;;;;;2.97;2.17;;;-8.40;99.90;;;;;;5098106;27;20442;-68
2022/12/13 05:32:49;;;;;;;1.20;1.08;;;-8.40;99.90;;;;;;5125582;27;20483;-68
2022/12/13 05:35:16;;;;;;;0.93;0.93;;;-8.50;99.90;;;;;;5091649;28;20422;-68
2022/12/13 05:37:49;;;;;;;1.50;1.33;;;-8.50;99.90;;;;;;5119360;27;20418;-68
2022/12/13 05:40:23;;;;;;;1.88;1.42;;;-8.50;99.90;;;;;;5074497;28;20421;-68
2022/12/13 05:42:49;;;;;;;1.33;1.23;;;-8.50;99.90;;;;;;5106460;28;21047;-68
2022/12/13 05:45:17;;;;;;;7.38;1.40;;;-8.40;99.90;;;;;;5093363;28;20916;-68
2022/12/13 05:47:44;;;;;;;7.97;2.57;;;-8.40;99.90;;;;;;5109887;27;20438;-68
2022/12/13 05:50:13;;;;;;;3.00;1.45;;;-8.40;99.90;;;;;;5110178;27;20434;-68
2022/12/13 05:52:39;;;;;;;0.70;0.70;;;-8.30;99.90;;;;;;5131052;27;20424;-68
2022/12/13 05:55:06;;;;;;;1.67;0.70;;;-8.40;99.90;;;;;;5113516;27;20420;-69
2022/12/13 05:57:33;;;;;;;2.40;1.02;;;-8.40;99.90;;;;;;5102365;28;20428;-68
2022/12/13 06:00:00;;;;;;;1.30;1.25;;;-8.40;99.90;;;;;;5113220;27;20434;-68
2022/12/13 06:02:27;;;;;;;2.88;1.45;;;-8.40;99.90;;;;;;5106686;27;20423;-67
2022/12/13 06:04:54;;;;;;;3.17;1.77;;;-8.40;99.90;;;;;;5108585;27;20511;-67
2022/12/13 06:07:22;;;;;;;4.15;1.17;;;-8.50;99.90;;;;;;5102401;28;20422;-68
2022/12/13 06:09:49;;;;;;;1.80;1.50;;;-8.50;99.90;;;;;;5102697;27;20426;-67
2022/12/13 06:12:16;;;;;;;3.05;0.98;;;-8.50;99.90;;;;;;5115405;27;20964;-67
2022/12/13 06:14:58;;;;;;;3.50;1.92;;;-8.40;99.90;;;;;;5097388;28;20870;-68
2022/12/13 06:17:44;;;;;;;1.40;1.00;;;-8.30;99.90;;;;;;5104275;27;20469;-67
2022/12/13 06:20:11;;;;;;;2.57;1.43;;;-8.40;99.90;;;;;;5107916;27;20842;-67
2022/12/13 06:22:49;;;;;;;1.92;1.35;;;-8.40;99.90;;;;;;5103748;27;20468;-67
2022/12/13 06:25:19;;;;;;;3.13;1.95;;;-8.50;99.90;;;;;;5108446;28;20917;-67
2022/12/13 06:27:58;;;;;;;3.73;1.80;;;-8.60;99.90;;;;;;5110419;28;20441;-67
2022/12/13 06:30:27;;;;;;;0.63;0.63;;;-8.60;99.90;;;;;;5108436;28;20926;-67
2022/12/13 06:32:54;;;;;;;6.50;2.13;;;-8.60;99.90;;;;;;5107946;28;20971;-67
2022/12/13 06:35:22;;;;;;;1.73;1.63;;;-8.60;99.90;;;;;;5110382;28;20420;-67
2022/12/13 06:37:56;;;;;;;2.33;1.80;;;-8.60;99.90;;;;;;5110418;27;20460;-67
2022/12/13 06:40:31;;;;;;;3.45;1.80;;;-8.70;99.90;;;;;;5101683;28;21179;-67
2022/12/13 06:42:58;;;;;;;3.10;1.65;;;-8.70;99.90;;;;;;5110205;27;20485;-67
2022/12/13 06:45:25;;;;;;;1.95;1.42;;;-8.70;99.90;;;;;;5109765;27;20432;-67
2022/12/13 06:47:52;;;;;;;5.72;1.73;;;-8.70;99.90;;;;;;5106982;28;20426;-67
2022/12/13 06:50:19;;;;;;;5.25;1.30;;;-8.70;99.90;;;;;;5109624;28;20462;-67
2022/12/13 06:52:46;;;;;;;0.95;0.93;;;-8.60;99.90;;;;;;5109186;28;20946;-67
2022/12/13 06:55:13;;;;;;;2.45;1.33;;;-8.60;99.90;;;;;;5097594;28;20430;-67
2022/12/13 06:57:49;;;;;;;2.33;2.23;;;-8.60;99.90;;;;;;5093199;28;20420;-67
2022/12/13 07:00:16;;;;;;;1.55;1.30;;;-8.50;99.90;;;;;;5106332;28;20428;-67
2022/12/13 07:02:55;;;;;;;2.28;1.02;;;-8.50;99.90;;;;;;5094997;27;20426;-68
2022/12/13 07:05:22;;;;;;;5.07;1.20;;;-8.50;99.90;;;;;;5105869;28;20420;-67
2022/12/13 07:07:49;;;;;;;6.75;2.53;;;-8.50;99.90;;;;;;5108442;27;20420;-68
2022/12/13 07:10:16;;;;;;;2.90;1.43;;;-8.40;99.90;;;;;;5103141;27;20492;-67
2022/12/13 07:12:49;;;;;;;3.97;1.27;;;-8.30;99.90;;;;;;5106416;27;20450;-67
2022/12/13 07:15:16;;;;;;;2.30;2.20;;;-8.30;99.90;;;;;;5099519;27;20439;-67
2022/12/13 07:17:43;;;;;;;0.90;0.90;;;-8.20;99.90;;;;;;5075254;28;20522;-67
2022/12/13 07:20:12;;;;;;;4.30;2.05;;;-8.20;99.90;;;;;;5092944;28;20432;-66
2022/12/13 07:22:39;;;;;;;3.30;1.77;;;-8.20;99.90;;;;;;5098739;27;20429;-67
2022/12/13 07:25:13;;;;;;;0.52;0.52;;;-8.20;99.90;;;;;;5103500;28;20463;-67
2022/12/13 07:28:02;;;;;;;1.15;0.98;;;-8.10;99.90;;;;;;5093255;28;20442;-67
2022/12/13 07:30:31;;;;;;;3.22;1.50;;;-8.10;99.90;;;;;;5108307;27;20427;-67
2022/12/13 07:33:00;;;;;;;2.35;1.58;;;-7.90;99.90;;;;;;5113485;27;20455;-67
2022/12/13 07:35:27;;;;;;;5.43;1.10;;;-7.90;99.90;;;;;;5126122;27;20423;-67
2022/12/13 07:37:54;;;;;;;1.90;1.23;;;-8.00;99.90;;;;;;5106052;27;21180;-67
2022/12/13 07:40:21;;;;;;;2.40;1.45;;;-8.00;99.90;;;;;;5077088;28;20501;-67
2022/12/13 07:42:52;;;;;;;2.72;1.98;;;-7.90;99.90;;;;;;5108972;27;20426;-67
2022/12/13 07:45:19;;;;;;;3.90;1.20;;;-7.90;99.90;;;;;;5116023;27;20869;-67
2022/12/13 07:47:46;;;;;;;1.17;1.17;;;-7.90;99.90;;;;;;5078438;28;20429;-69
2022/12/13 07:50:13;;;;;;;2.65;1.30;;;-7.80;99.90;;;;;;5105679;27;20957;-67
2022/12/13 07:52:52;;;;;;;1.85;1.40;;;-7.80;99.90;;;;;;5091799;28;20471;-68
2022/12/13 07:55:20;;;;;;;2.03;1.58;;;-7.70;99.90;;;;;;5101942;28;20426;-67
2022/12/13 07:58:10;;;;;;;1.25;1.15;;;-7.70;99.90;;;;;;5125700;28;20433;-66
2022/12/13 08:00:38;;;;;;;3.70;1.77;;;-7.70;99.90;;;;;;5104343;28;20440;-67
2022/12/13 08:03:08;;;;;;;1.77;0.97;;;-7.70;99.90;;;;;;5096419;28;20490;-67
2022/12/13 08:06:02;;;;;;;1.25;1.15;;;-7.60;99.90;;;;;;5068949;28;20481;-67
2022/12/13 08:08:29;;;;;;;1.15;1.05;;;-7.50;99.90;;;;;;5094884;28;20944;-67
2022/12/13 08:11:08;;;;;;;1.33;1.23;;;-7.40;99.90;;;;;;5093820;28;20432;-72
2022/12/13 08:13:37;;;;;;;3.50;1.05;;;-7.30;99.90;;;;;;5102166;27;20421;-73
2022/12/13 08:16:07;;;;;;;2.20;1.77;;;-7.30;99.90;;;;;;5107130;27;20426;-68
2022/12/13 08:18:58;;;;;;;1.80;1.20;;;-7.20;99.90;;;;;;5113072;27;20456;-67
2022/12/13 08:21:35;;;;;;;1.88;1.38;;;-7.10;99.90;;;;;;5087205;28;20432;-66
2022/12/13 08:24:26;;;;;;;1.30;1.20;;;-7.10;99.90;;;;;;5084721;27;20573;-66
2022/12/13 08:26:54;;;;;;;5.20;1.33;;;-7.00;99.90;;;;;;5084735;27;20421;-66
2022/12/13 08:29:21;;;;;;;1.65;1.38;;;-7.00;99.90;;;;;;5085446;28;20820;-66
2022/12/13 08:32:03;;;;;;;2.50;1.45;;;-6.90;99.90;;;;;;5085393;27;20432;-66
2022/12/13 08:34:30;;;;;;;1.50;0.75;;;-6.80;99.90;;;;;;5084136;27;20464;-66
2022/12/13 08:36:57;;;;;;;2.15;0.98;;;-6.70;99.90;;;;;;5069625;27;20956;-66
2022/12/13 08:39:34;;;;;;;0.90;0.90;;;-6.70;99.90;;;;;;5083960;28;20460;-66
2022/12/13 08:42:04;;;;;;;2.20;1.10;;;-6.60;99.90;;;;;;5083806;28;20434;-66
2022/12/13 08:44:47;;;;;;;1.70;1.45;;;-6.50;99.90;;;;;;5082792;28;20513;-65
2022/12/13 08:47:15;;;;;;;1.45;1.35;;;-6.40;99.90;;;;;;5086582;28;20439;-66
2022/12/13 08:49:57;;;;;;;2.10;1.27;;;-6.30;99.90;;;;;;5085588;28;20426;-65
2022/12/13 08:52:30;;;;;;;1.05;0.75;;;-6.10;99.90;;;;;;5079425;28;20416;-65
2022/12/13 08:54:57;;;;;;;5.07;2.00;;;-6.00;99.90;;;;;;5086464;28;20428;-65
2022/12/13 08:57:24;;;;;;;1.25;1.25;;;-5.80;99.90;;;;;;5081645;28;20510;-66
2022/12/13 08:59:50;;;;;;;2.58;1.65;;;-5.50;99.90;;;;;;5086081;27;20434;-65
2022/12/13 09:02:17;;;;;;;1.65;1.55;;;-5.30;1.00;;;;;;5087825;27;20430;-66
2022/12/13 09:04:44;;;;;;;3.75;1.35;;;-5.10;1.00;;;;;;5091804;27;20447;-65
2022/12/13 09:07:12;;;;;;;4.60;1.67;;;-4.80;1.00;;;;;;5104582;28;20458;-65
2022/12/13 09:09:38;;;;;;;2.03;1.65;;;-4.60;99.90;;;;;;5101045;27;20447;-66
2022/12/13 09:12:08;;;;;;;3.42;1.88;;;-4.30;99.90;;;;;;5104105;27;20453;-66
2022/12/13 09:14:55;;;;;;;3.60;2.03;;;-4.20;99.90;;;;;;5108462;27;21186;-67
2022/12/13 09:17:30;;;;;;;4.70;1.55;;;-3.80;1.00;;;;;;5112304;27;20453;-67
2022/12/13 09:20:05;;;;;;;4.73;2.07;;;-3.60;1.00;;;;;;5093315;28;20433;-66
2022/12/13 09:22:53;;;;;;;3.85;1.73;;;-3.40;1.00;;;;;;5106176;27;20478;-66
2022/12/13 09:25:28;;;;;;;2.30;1.30;;;-3.50;99.90;;;;;;5085555;27;20423;-66
2022/12/13 09:28:05;;;;;;;4.03;1.60;;;-3.40;99.90;;;;;;5089289;27;20432;-67
2022/12/13 09:30:31;;;;;;;2.47;2.33;;;-3.30;99.90;;;;;;5106677;27;20428;-66
2022/12/13 09:32:58;;;;;;;2.85;2.25;;;-3.40;99.90;;;;;;5106651;27;20424;-66
2022/12/13 09:35:43;;;;;;;2.55;1.40;;;-3.40;99.90;;;;;;5109822;27;20424;-67
2022/12/13 09:38:10;;;;;;;4.57;2.30;;;-3.20;99.90;;;;;;5117609;27;20526;-67
2022/12/13 09:40:38;;;;;;;2.88;2.08;;;-3.30;99.90;;;;;;5107292;27;20480;-67
2022/12/13 09:43:06;;;;;;;2.10;1.90;;;-3.20;99.90;;;;;;5130204;27;20431;-67
2022/12/13 09:45:44;;;;;;;4.53;2.75;;;-3.10;99.90;;;;;;5104472;27;20916;-67
2022/12/13 09:48:22;;;;;;;4.93;3.30;;;-2.80;99.90;;;;;;5109842;27;20911;-68
2022/12/13 09:50:49;;;;;;;2.10;1.70;;;-2.70;99.90;;;;;;5096577;28;20460;-67
2022/12/13 09:53:36;;;;;;;5.60;2.70;;;-2.60;99.90;;;;;;5115805;27;20446;-67
2022/12/13 09:56:04;;;;;;;5.50;2.65;;;-2.70;99.90;;;;;;5115822;27;20978;-67
2022/12/13 09:58:37;;;;;;;4.97;2.50;;;-2.90;99.90;;;;;;5091529;28;20461;-67
2022/12/13 10:01:04;;;;;;;2.17;1.70;;;-3.00;99.90;;;;;;5089951;28;20425;-67
2022/12/13 10:03:34;;;;;;;3.80;1.88;;;-2.80;99.90;;;;;;5090544;28;20447;-68
2022/12/13 10:06:15;;;;;;;2.17;2.03;;;-2.70;99.90;;;;;;5110881;27;20426;-68
2022/12/13 10:08:53;;;;;;;3.05;1.77;;;-2.40;99.90;;;;;;5075294;28;20425;-68
2022/12/13 10:11:25;;;;;;;9.60;2.88;;;-2.30;99.90;;;;;;5128354;27;20590;-67
2022/12/13 10:14:01;;;;;;;7.22;2.63;;;-2.00;99.90;;;;;;5132146;27;20478;-68
2022/12/13 10:16:45;;;;;;;4.43;2.45;;;-1.90;99.90;;;;;;5116368;27;20421;-69
2022/12/13 10:19:21;;;;;;;4.37;2.40;;;-1.80;99.90;;;;;;5089006;27;20536;-70
2022/12/13 10:21:56;;;;;;;2.95;2.65;;;-1.70;99.90;;;;;;5086330;28;20420;-67
2022/12/13 10:24:54;;;;;;;5.18;3.50;;;-1.70;99.90;;;;;;5099983;28;20467;-68
2022/12/13 10:27:55;;;;;;;8.23;2.95;;;-1.50;99.90;;;;;;5093395;27;20424;-69
2022/12/13 10:30:23;;;;;;;5.70;4.18;;;-1.00;99.90;;;;;;5091259;28;20432;-69
2022/12/13 10:33:03;;;;;;;3.08;2.42;;;-0.70;99.90;;;;;;5093476;28;20513;-69
2022/12/13 10:35:36;;;;;;;4.88;1.98;;;-0.80;99.90;;;;;;5098476;27;20487;-69
2022/12/13 10:38:15;;;;;;;2.87;2.60;;;-0.50;99.90;;;;;;5104040;27;20440;-69
2022/12/13 10:40:44;;;;;;;3.45;3.10;;;-0.40;99.90;;;;;;5086917;28;20433;-69
2022/12/13 10:43:12;;;;;;;3.30;1.83;;;-0.20;99.90;;;;;;5109325;27;20430;-69
2022/12/13 10:45:40;;;;;;;7.80;2.25;;;-0.60;99.90;;;;;;5099248;28;20432;-69
2022/12/13 10:48:22;;;;;;;3.05;2.15;;;-0.50;99.90;;;;;;5108718;27;20424;-69
2022/12/13 10:51:20;;;;;;;3.90;1.90;;;-0.50;99.90;;;;;;5096937;27;20420;-69
2022/12/13 10:53:54;;;;;;;2.47;2.27;;;-0.60;99.90;;;;;;4999303;28;20909;-69
2022/12/13 10:56:31;;;;;;;6.10;2.20;;;-0.30;99.90;;;;;;5001989;28;20467;-69
2022/12/13 10:59:19;;;;;;;4.05;2.53;;;0.00;99.90;;;;;;4998569;28;21286;-70
2022/12/13 11:01:46;;;;;;;4.15;2.13;;;0.00;99.90;;;;;;4999675;28;20557;-71
2022/12/13 11:04:33;;;;;;;1.90;1.73;;;0.00;99.90;;;;;;5003646;28;20432;-70
2022/12/13 11:07:24;;;;;;;3.30;2.13;;;0.10;99.90;;;;;;4980607;28;20531;-69
2022/12/13 11:09:50;;;;;;;2.78;2.22;;;0.10;99.90;;;;;;4999585;28;20444;-69
2022/12/13 11:12:26;;;;;;;4.90;2.05;;;0.10;99.90;;;;;;4997101;28;20438;-70
2022/12/13 11:14:59;;;;;;;2.67;2.47;;;0.00;99.90;;;;;;4999636;28;20443;-69
2022/12/13 11:17:30;;;;;;;3.67;1.98;;;0.10;99.90;;;;;;4999133;28;20438;-71
2022/12/13 11:20:01;;;;;;;2.42;2.28;;;0.10;99.90;;;;;;4998270;28;21283;-71
2022/12/13 11:22:30;;;;;;;1.80;1.70;;;0.10;99.90;;;;;;5003060;28;20440;-71
2022/12/13 11:25:18;;;;;;;2.50;1.67;;;0.10;99.90;;;;;;5001107;28;20436;-71
2022/12/13 11:28:00;;;;;;;3.20;1.60;;;0.00;99.90;;;;;;5001653;28;20472;-71
2022/12/13 11:30:51;;;;;;;4.47;2.42;;;0.20;99.90;;;;;;5053368;27;20437;-71
2022/12/13 11:33:35;;;;;;;2.90;2.70;;;0.70;99.90;;;;;;5092555;27;20433;-71
2022/12/13 11:36:34;;;;;;;5.03;2.58;;;0.80;99.90;;;;;;5071042;28;20604;-71
2022/12/13 11:39:24;;;;;;;2.35;2.00;;;0.70;99.90;;;;;;5101843;28;20427;-71
2022/12/13 11:42:09;;;;;;;5.65;2.65;;;0.70;99.90;;;;;;5102014;28;20428;-71
2022/12/13 11:45:09;;;;;;;5.53;2.63;;;0.60;99.90;;;;;;5105327;27;20431;-69
2022/12/13 11:47:50;;;;;;;3.20;2.40;;;0.60;99.90;;;;;;5109870;27;20889;-71
2022/12/13 11:50:42;;;;;;;2.58;2.38;;;0.50;99.90;;;;;;5105171;27;20786;-70
2022/12/13 11:53:33;;;;;;;4.35;2.03;;;0.60;99.90;;;;;;5099025;28;20436;-69
2022/12/13 11:56:09;;;;;;;2.75;2.15;;;0.60;99.90;;;;;;5095481;28;20420;-70
2022/12/13 11:58:41;;;;;;;1.77;1.67;;;0.60;99.90;;;;;;5087935;28;20456;-70
2022/12/13 12:01:45;;;;;;;4.50;1.75;;;0.70;99.90;;;;;;5095200;28;20484;-69
2022/12/13 12:04:20;;;;;;;4.00;2.22;;;0.80;99.90;;;;;;5102624;28;20442;-70
2022/12/13 12:07:01;;;;;;;3.80;1.73;;;0.90;99.90;;;;;;5102626;28;20458;-70
2022/12/13 12:09:57;;;;;;;2.97;2.38;;;1.00;99.90;;;;;;5104403;28;20503;-71
2022/12/13 12:12:32;;;;;;;3.03;2.05;;;1.00;99.90;;;;;;5105803;28;20942;-70
2022/12/13 12:15:06;;;;;;;6.95;2.63;;;1.10;99.90;;;;;;5076656;28;20507;-70
2022/12/13 12:17:42;;;;;;;16.90;6.05;;;1.00;99.90;;;;;;5109977;28;20422;-69
2022/12/13 12:20:14;;;;;;;21.13;7.95;;;0.90;99.90;;;;;;5108173;28;20432;-70
2022/12/13 12:22:55;;;;;;;25.60;7.97;;;0.80;99.90;;;;;;5089347;28;20455;-70
2022/12/13 12:25:40;;;;;;;4.45;1.70;;;0.70;99.90;;;;;;5091585;28;20423;-71
2022/12/13 12:28:55;;;;;;;3.03;1.23;;;0.80;99.90;;;;;;5106991;28;20424;-70
2022/12/13 12:31:29;;;;;;;2.42;1.95;;;0.60;99.90;;;;;;5102387;28;20425;-70
2022/12/13 12:34:20;;;;;;;2.22;1.25;;;0.30;99.90;;;;;;5112188;28;20477;-70
2022/12/13 12:37:18;;;;;;;1.30;1.05;;;0.00;99.90;;;;;;5109694;28;20414;-74
2022/12/13 12:40:15;;;;;;;4.23;2.07;;;0.10;99.90;;;;;;5102678;28;20439;-71
2022/12/13 12:43:13;;;;;;;2.25;1.38;;;-0.10;99.90;;;;;;5118436;28;20426;-70
2022/12/13 12:46:06;;;;;;;1.45;1.35;;;-0.10;99.90;;;;;;5118525;28;20869;-70
2022/12/13 12:48:59;;;;;;;3.28;1.73;;;-0.30;99.90;;;;;;5098276;28;20537;-72
2022/12/13 12:51:59;;;;;;;2.83;1.85;;;-0.30;99.90;;;;;;5103532;28;20551;-71
2022/12/13 12:55:02;;;;;;;3.03;1.70;;;-0.20;99.90;;;;;;5094451;28;20425;-71
2022/12/13 12:57:50;;;;;;;2.67;1.93;;;-0.10;99.90;;;;;;5101320;28;20435;-71
2022/12/13 13:00:22;;;;;;;2.10;1.70;;;0.00;99.90;;;;;;5088523;28;20429;-71
2022/12/13 13:03:10;;;;;;;3.63;1.70;;;0.10;99.90;;;;;;5098446;27;20430;-70
2022/12/13 13:05:51;;;;;;;3.70;1.88;;;0.10;99.90;;;;;;5096303;28;20430;-71
2022/12/13 13:08:58;;;;;;;2.80;1.98;;;-0.30;99.90;;;;;;5105816;27;20414;-70
2022/12/13 13:11:30;;;;;;;2.25;2.05;;;-0.60;99.90;;;;;;5100186;28;20424;-70
2022/12/13 13:13:56;;;;;;;2.78;1.35;;;-0.70;99.90;;;;;;5110393;27;20437;-70
2022/12/13 13:16:31;;;;;;;2.95;1.65;;;-0.90;99.90;;;;;;5098249;28;21013;-70
2022/12/13 13:19:10;;;;;;;1.40;1.23;;;-1.10;99.90;;;;;;5102979;28;20504;-70
2022/12/13 13:21:46;;;;;;;1.98;1.67;;;-1.40;99.90;;;;;;5124382;27;20492;-70
2022/12/13 13:24:23;;;;;;;6.15;2.17;;;-1.60;99.90;;;;;;5106895;27;20441;-70
2022/12/13 13:27:13;;;;;;;1.77;1.67;;;-1.60;99.90;;;;;;5082487;27;20818;-70
2022/12/13 13:29:41;;;;;;;2.25;1.83;;;-1.60;99.90;;;;;;5086701;28;20484;-70